Time;durP1;ratioP1;P1;durP2;ratioP2;P2;SDS_P1;SDS_P2;PMS_P1;PMS_P2;Temp;Humidity;BMP_temperature;BMP_pressure;BME280_temperature;BME280_humidity;BME280_pressure;Samples;Min_cycle;Max_cycle;Signal;HPM_P1;HPM_P2
2021/11/09 00:02:18;;;;;;;4.57;3.57;;;7.80;99.90;;;;;;5048774;28;20236;-68
2021/11/09 00:04:49;;;;;;;4.23;3.60;;;7.70;99.90;;;;;;5050871;28;20711;-67
2021/11/09 00:07:25;;;;;;;6.97;4.27;;;7.80;99.90;;;;;;5050905;28;20263;-67
2021/11/09 00:09:58;;;;;;;7.53;3.87;;;7.70;99.90;;;;;;5057832;28;20225;-67
2021/11/09 00:12:27;;;;;;;6.50;3.90;;;7.70;99.90;;;;;;5049506;28;20202;-66
2021/11/09 00:14:55;;;;;;;7.03;4.00;;;7.70;99.90;;;;;;5047889;28;20209;-66
2021/11/09 00:17:22;;;;;;;5.63;3.73;;;7.80;99.90;;;;;;5042987;28;20226;-66
2021/11/09 00:19:49;;;;;;;4.53;3.50;;;7.70;99.90;;;;;;5042236;28;20225;-67
2021/11/09 00:22:16;;;;;;;5.37;3.80;;;7.70;99.90;;;;;;5047388;28;20218;-66
2021/11/09 00:24:43;;;;;;;4.83;3.53;;;7.70;99.90;;;;;;5049251;28;20210;-67
2021/11/09 00:27:11;;;;;;;6.40;3.13;;;7.70;99.90;;;;;;5045981;28;20296;-67
2021/11/09 00:29:39;;;;;;;6.53;4.23;;;7.60;99.90;;;;;;5043581;28;20577;-68
2021/11/09 00:32:07;;;;;;;6.30;3.33;;;7.60;99.90;;;;;;5045755;28;20648;-67
2021/11/09 00:34:34;;;;;;;7.27;3.30;;;7.60;99.90;;;;;;5043759;28;20206;-67
2021/11/09 00:37:00;;;;;;;6.93;3.23;;;7.50;99.90;;;;;;5042654;28;20214;-67
2021/11/09 00:39:27;;;;;;;3.87;3.13;;;7.60;99.90;;;;;;5051177;28;20293;-68
2021/11/09 00:41:54;;;;;;;6.77;3.67;;;7.50;99.90;;;;;;5047196;28;20662;-67
2021/11/09 00:44:24;;;;;;;5.17;3.03;;;7.50;99.90;;;;;;5049503;28;20205;-67
2021/11/09 00:46:51;;;;;;;4.23;3.13;;;7.50;99.90;;;;;;5051520;28;20302;-67
2021/11/09 00:49:19;;;;;;;4.80;3.10;;;7.50;99.90;;;;;;5047532;28;20688;-66
2021/11/09 00:51:46;;;;;;;5.80;2.60;;;7.50;99.90;;;;;;5052987;28;20217;-67
2021/11/09 00:54:13;;;;;;;5.97;3.23;;;7.40;99.90;;;;;;5049026;28;20206;-67
2021/11/09 00:56:41;;;;;;;5.17;3.10;;;7.40;99.90;;;;;;5048175;28;20234;-66
2021/11/09 00:59:08;;;;;;;5.60;3.30;;;7.40;99.90;;;;;;5050619;28;20236;-69
2021/11/09 01:01:36;;;;;;;6.10;3.40;;;7.40;99.90;;;;;;5049516;28;20272;-66
2021/11/09 01:04:04;;;;;;;5.27;3.10;;;7.40;99.90;;;;;;5051168;28;20214;-68
2021/11/09 01:06:32;;;;;;;5.50;3.27;;;7.30;99.90;;;;;;5044423;28;20210;-66
2021/11/09 01:08:59;;;;;;;5.67;3.23;;;7.30;99.90;;;;;;5049188;28;20206;-67
2021/11/09 01:11:27;;;;;;;4.53;3.03;;;7.30;99.90;;;;;;5052536;28;20663;-67
2021/11/09 01:13:54;;;;;;;4.13;3.10;;;7.30;99.90;;;;;;5045286;28;20217;-67
2021/11/09 01:16:21;;;;;;;5.37;3.77;;;7.20;99.90;;;;;;5040643;28;20570;-67
2021/11/09 01:18:52;;;;;;;5.23;3.60;;;7.20;99.90;;;;;;5038696;28;20211;-67
2021/11/09 01:21:20;;;;;;;4.83;3.20;;;7.20;99.90;;;;;;5047782;28;20229;-67
2021/11/09 01:23:49;;;;;;;5.37;3.47;;;7.20;99.90;;;;;;5042722;28;20324;-67
2021/11/09 01:26:17;;;;;;;7.30;3.77;;;7.20;99.90;;;;;;5045913;28;20210;-67
2021/11/09 01:28:46;;;;;;;8.60;4.90;;;7.20;99.90;;;;;;5050849;28;20288;-66
2021/11/09 01:31:13;;;;;;;6.27;3.17;;;7.10;99.90;;;;;;5048423;28;20234;-68
2021/11/09 01:33:41;;;;;;;4.97;3.27;;;7.10;99.90;;;;;;5050279;28;20551;-66
2021/11/09 01:36:09;;;;;;;5.40;3.47;;;7.10;99.90;;;;;;5050090;28;20578;-67
2021/11/09 01:38:36;;;;;;;5.73;3.60;;;7.10;99.90;;;;;;5047006;28;20209;-68
2021/11/09 01:41:05;;;;;;;4.43;3.30;;;7.00;99.90;;;;;;5045451;28;20753;-67
2021/11/09 01:43:33;;;;;;;4.17;3.43;;;7.00;99.90;;;;;;5041537;28;20213;-67
2021/11/09 01:46:00;;;;;;;5.23;3.70;;;7.00;99.90;;;;;;5046062;28;20229;-67
2021/11/09 01:48:28;;;;;;;5.40;3.60;;;6.90;99.90;;;;;;5054022;28;20212;-67
2021/11/09 01:50:58;;;;;;;4.77;3.30;;;6.90;99.90;;;;;;5047306;28;20201;-66
2021/11/09 01:53:27;;;;;;;6.57;3.50;;;6.90;99.90;;;;;;5050251;28;20209;-67
2021/11/09 01:55:57;;;;;;;4.80;3.37;;;6.80;99.90;;;;;;5042935;28;20659;-66
2021/11/09 01:58:23;;;;;;;5.37;3.53;;;6.80;99.90;;;;;;5051242;28;20569;-68
2021/11/09 02:00:53;;;;;;;6.40;3.90;;;6.90;99.90;;;;;;5048643;28;20299;-67
2021/11/09 02:03:21;;;;;;;5.20;3.10;;;6.80;99.90;;;;;;5048865;28;20206;-67
2021/11/09 02:05:50;;;;;;;4.37;3.13;;;6.80;99.90;;;;;;5045768;28;20213;-67
2021/11/09 02:08:18;;;;;;;6.47;3.30;;;6.70;99.90;;;;;;5041858;28;20604;-66
2021/11/09 02:10:48;;;;;;;5.17;3.10;;;6.70;99.90;;;;;;5047650;28;20206;-67
2021/11/09 02:13:17;;;;;;;7.03;3.70;;;6.70;99.90;;;;;;5046258;28;20212;-67
2021/11/09 02:15:44;;;;;;;5.23;3.40;;;6.60;99.90;;;;;;5049633;28;20225;-67
2021/11/09 02:18:14;;;;;;;6.37;3.70;;;6.60;99.90;;;;;;5051212;28;20202;-66
2021/11/09 02:20:49;;;;;;;4.37;2.97;;;6.60;99.90;;;;;;5048924;28;20223;-67
2021/11/09 02:23:15;;;;;;;4.93;3.37;;;6.50;99.90;;;;;;5051410;28;20209;-66
2021/11/09 02:25:42;;;;;;;4.87;3.23;;;6.50;99.90;;;;;;5043194;28;20211;-67
2021/11/09 02:28:09;;;;;;;4.60;3.20;;;6.40;99.90;;;;;;5049946;28;20217;-67
2021/11/09 02:30:36;;;;;;;6.77;3.40;;;6.20;99.90;;;;;;5039271;28;20217;-66
2021/11/09 02:33:04;;;;;;;6.10;3.40;;;6.20;99.90;;;;;;5051414;28;20205;-67
2021/11/09 02:35:31;;;;;;;6.17;3.23;;;6.10;99.90;;;;;;5052839;28;20214;-67
2021/11/09 02:38:00;;;;;;;5.40;3.40;;;6.10;99.90;;;;;;5045755;28;20207;-67
2021/11/09 02:40:27;;;;;;;5.20;3.10;;;6.10;99.90;;;;;;5052126;28;20222;-67
2021/11/09 02:42:57;;;;;;;5.13;2.93;;;6.10;99.90;;;;;;5045365;28;20222;-67
2021/11/09 02:45:33;;;;;;;6.23;2.87;;;6.10;99.90;;;;;;5048988;28;21019;-67
2021/11/09 02:48:03;;;;;;;4.60;3.00;;;6.00;99.90;;;;;;5054765;28;20210;-68
2021/11/09 02:50:33;;;;;;;5.43;3.70;;;6.00;99.90;;;;;;5050127;28;20206;-68
2021/11/09 02:53:05;;;;;;;6.43;2.83;;;6.00;99.90;;;;;;5051308;28;20233;-67
2021/11/09 02:55:35;;;;;;;8.10;3.63;;;6.00;99.90;;;;;;5059476;28;20272;-67
2021/11/09 02:58:11;;;;;;;4.93;3.23;;;6.00;99.90;;;;;;5049099;28;20238;-66
2021/11/09 03:00:46;;;;;;;6.87;3.50;;;6.00;99.90;;;;;;5047440;28;20705;-67
2021/11/09 03:03:17;;;;;;;4.00;3.20;;;5.90;99.90;;;;;;5050080;28;20700;-66
2021/11/09 03:05:48;;;;;;;6.83;3.10;;;5.90;99.90;;;;;;5053302;28;20218;-67
2021/11/09 03:08:26;;;;;;;3.60;2.60;;;5.80;99.90;;;;;;5058276;28;20308;-67
2021/11/09 03:10:54;;;;;;;6.67;3.60;;;5.80;99.90;;;;;;5048122;28;20213;-66
2021/11/09 03:13:22;;;;;;;4.47;2.93;;;5.80;99.90;;;;;;5053124;28;20271;-67
2021/11/09 03:15:49;;;;;;;4.57;2.93;;;5.70;99.90;;;;;;5044057;28;20202;-67
2021/11/09 03:18:18;;;;;;;7.27;3.37;;;5.70;99.90;;;;;;5050430;28;20216;-67
2021/11/09 03:20:50;;;;;;;5.50;3.33;;;5.70;99.90;;;;;;5051094;28;20701;-67
2021/11/09 03:40:04;;;;;;;4.70;3.23;;;5.40;99.90;;;;;;5049688;28;20213;-67
2021/11/09 03:45:21;;;;;;;6.57;3.60;;;5.30;99.90;;;;;;5051484;28;20692;-67
2021/11/09 03:47:51;;;;;;;4.40;3.30;;;5.20;99.90;;;;;;5051190;28;20305;-66
2021/11/09 03:50:20;;;;;;;4.33;3.00;;;5.20;99.90;;;;;;5048591;28;20224;-67
2021/11/09 03:52:50;;;;;;;7.07;3.83;;;5.10;99.90;;;;;;5046727;28;20249;-67
2021/11/09 03:55:25;;;;;;;5.30;3.50;;;5.10;99.90;;;;;;5051905;28;20210;-66
2021/11/09 03:58:03;;;;;;;5.83;3.53;;;5.10;99.90;;;;;;5060175;28;20236;-67
2021/11/09 04:00:33;;;;;;;4.40;3.10;;;5.00;99.90;;;;;;5047578;28;20267;-68
2021/11/09 04:03:02;;;;;;;4.60;3.20;;;5.00;99.90;;;;;;5050320;28;20287;-67
2021/11/09 04:05:34;;;;;;;5.73;2.90;;;5.00;99.90;;;;;;5047976;28;20219;-66
2021/11/09 04:08:05;;;;;;;6.67;3.60;;;5.00;99.90;;;;;;5050702;28;20312;-67
2021/11/09 04:10:44;;;;;;;5.60;3.23;;;4.90;99.90;;;;;;5050547;28;20202;-66
2021/11/09 04:16:16;;;;;;;7.23;4.70;;;4.90;99.90;;;;;;5046444;28;20232;-67
2021/11/09 04:18:51;;;;;;;5.77;3.57;;;4.90;99.90;;;;;;5038220;28;20260;-67
2021/11/09 04:21:31;;;;;;;6.27;3.77;;;4.90;99.90;;;;;;5043379;28;20306;-67
2021/11/09 04:24:24;;;;;;;6.53;3.93;;;4.80;99.90;;;;;;5045004;28;20217;-66
2021/11/09 04:27:10;;;;;;;6.87;4.63;;;4.80;99.90;;;;;;5043845;28;20203;-68
2021/11/09 04:32:36;;;;;;;5.10;3.73;;;4.70;99.90;;;;;;5046438;28;20241;-67
2021/11/09 04:35:41;;;;;;;5.37;3.40;;;4.70;99.90;;;;;;5053755;28;20259;-67
2021/11/09 04:49:48;;;;;;;5.67;3.70;;;4.50;99.90;;;;;;5044622;28;20574;-68
2021/11/09 05:08:46;;;;;;;6.53;4.50;;;4.40;99.90;;;;;;5047345;28;20748;-67
2021/11/09 05:11:14;;;;;;;6.20;4.03;;;4.30;99.90;;;;;;5048808;28;20301;-67
2021/11/09 05:13:41;;;;;;;7.00;4.53;;;4.20;99.90;;;;;;5044989;28;20251;-67
2021/11/09 05:16:09;;;;;;;7.50;4.37;;;4.20;99.90;;;;;;5048983;28;20239;-67
2021/11/09 05:18:36;;;;;;;5.53;4.30;;;4.20;99.90;;;;;;5049845;28;20206;-66
2021/11/09 05:21:04;;;;;;;6.20;4.43;;;4.20;99.90;;;;;;5041951;28;20312;-67
2021/11/09 05:23:31;;;;;;;5.83;4.40;;;4.20;99.90;;;;;;5048401;28;20240;-66
2021/11/09 05:25:58;;;;;;;8.33;4.53;;;4.20;99.90;;;;;;5042889;28;20205;-67
2021/11/09 05:28:26;;;;;;;6.63;5.00;;;4.20;99.90;;;;;;5046176;28;20218;-67
2021/11/09 05:30:53;;;;;;;6.50;5.10;;;4.20;99.90;;;;;;5044732;28;20238;-67
2021/11/09 05:33:22;;;;;;;8.83;5.40;;;4.10;99.90;;;;;;5042207;28;20206;-67
2021/11/09 05:35:51;;;;;;;8.13;5.57;;;4.10;99.90;;;;;;5047408;28;20202;-66
2021/11/09 05:38:24;;;;;;;6.73;5.20;;;4.10;99.90;;;;;;5056056;28;20277;-67
2021/11/09 05:40:55;;;;;;;8.07;5.27;;;4.10;99.90;;;;;;5044518;28;20234;-68
2021/11/09 05:43:22;;;;;;;7.70;4.87;;;4.10;99.90;;;;;;5041622;28;20229;-66
2021/11/09 05:45:49;;;;;;;7.60;5.37;;;4.10;99.90;;;;;;5046190;28;20217;-68
2021/11/09 05:48:16;;;;;;;8.63;5.30;;;4.10;99.90;;;;;;5050353;28;20224;-67
2021/11/09 05:50:44;;;;;;;8.33;4.90;;;4.10;99.90;;;;;;5046258;28;20563;-67
2021/11/09 05:53:11;;;;;;;6.43;5.17;;;4.10;99.90;;;;;;5041310;28;20218;-67
2021/11/09 05:55:38;;;;;;;6.80;4.67;;;4.10;99.90;;;;;;5054712;28;20201;-67
2021/11/09 05:58:05;;;;;;;7.07;4.93;;;4.00;99.90;;;;;;5049004;28;20324;-67
2021/11/09 06:00:31;;;;;;;7.27;5.10;;;4.00;99.90;;;;;;5046573;28;20233;-67
2021/11/09 06:02:58;;;;;;;7.23;4.63;;;4.00;99.90;;;;;;5049616;28;20198;-66
2021/11/09 06:05:25;;;;;;;8.33;5.27;;;4.00;99.90;;;;;;5052763;28;20214;-67
2021/11/09 06:07:53;;;;;;;7.40;4.67;;;4.00;99.90;;;;;;5055109;28;20214;-67
2021/11/09 06:10:20;;;;;;;7.00;5.20;;;4.00;99.90;;;;;;5051611;28;20216;-67
2021/11/09 06:12:47;;;;;;;8.80;5.73;;;4.10;99.90;;;;;;5054376;28;20245;-69
2021/11/09 06:15:14;;;;;;;8.20;5.70;;;4.00;99.90;;;;;;5052940;28;20751;-67
2021/11/09 06:17:41;;;;;;;11.80;6.20;;;4.00;99.90;;;;;;5050552;28;20207;-67
2021/11/09 06:20:09;;;;;;;8.53;5.40;;;4.00;99.90;;;;;;5053834;28;20214;-67
2021/11/09 06:22:39;;;;;;;7.27;5.87;;;4.00;99.90;;;;;;5049244;28;20226;-68
2021/11/09 06:25:08;;;;;;;12.07;6.47;;;4.00;99.90;;;;;;5054705;28;20209;-67
2021/11/09 06:27:35;;;;;;;10.10;6.80;;;4.10;99.90;;;;;;5052519;28;20483;-68
2021/11/09 06:30:03;;;;;;;11.27;6.63;;;4.10;99.90;;;;;;5053194;28;20244;-70
2021/11/09 06:32:30;;;;;;;11.43;6.60;;;4.10;99.90;;;;;;5054661;28;20783;-69
2021/11/09 06:34:57;;;;;;;9.90;6.60;;;4.20;99.90;;;;;;5051562;28;20202;-68
2021/11/09 06:37:24;;;;;;;10.43;6.60;;;4.10;99.90;;;;;;5053781;28;20210;-67
2021/11/09 06:39:51;;;;;;;9.33;6.20;;;3.90;99.90;;;;;;5053006;28;20325;-68
2021/11/09 06:42:20;;;;;;;8.47;5.83;;;3.80;99.90;;;;;;5051549;28;20238;-68
2021/11/09 06:44:46;;;;;;;11.03;6.63;;;3.80;99.90;;;;;;5048195;28;20643;-67
2021/11/09 06:47:14;;;;;;;9.70;7.10;;;;;;;;;;5045438;28;20207;-68
2021/11/09 06:49:41;;;;;;;11.60;7.27;;;3.80;99.90;;;;;;5048023;28;20609;-69
2021/11/09 06:52:08;;;;;;;13.00;6.90;;;3.70;99.90;;;;;;5039719;28;20688;-68
2021/11/09 06:54:36;;;;;;;11.63;6.97;;;3.70;99.90;;;;;;5047909;28;20651;-68
2021/11/09 06:57:03;;;;;;;11.23;6.77;;;3.70;99.90;;;;;;5045008;28;20230;-68
2021/11/09 06:59:32;;;;;;;14.50;7.27;;;3.60;99.90;;;;;;5050878;28;20205;-69
2021/11/09 07:01:59;;;;;;;13.23;7.73;;;3.60;99.90;;;;;;5053031;28;20702;-67
2021/11/09 07:04:25;;;;;;;12.57;7.93;;;3.60;99.90;;;;;;5044834;28;20306;-68
2021/11/09 07:06:52;;;;;;;14.50;8.67;;;3.50;99.90;;;;;;5052352;28;20210;-68
2021/11/09 07:09:19;;;;;;;15.40;7.83;;;3.60;99.90;;;;;;5062409;28;20209;-68
2021/11/09 07:11:46;;;;;;;16.97;9.37;;;3.50;99.90;;;;;;5049759;28;20693;-68
2021/11/09 07:14:13;;;;;;;13.93;8.07;;;3.50;99.90;;;;;;5052162;28;20214;-68
2021/11/09 07:16:44;;;;;;;9.23;7.50;;;3.50;99.90;;;;;;5049664;28;20300;-70
2021/11/09 07:19:11;;;;;;;13.87;8.30;;;3.50;99.90;;;;;;5049440;28;20288;-69
2021/11/09 07:21:38;;;;;;;14.70;8.73;;;3.50;99.90;;;;;;5050607;28;20331;-69
2021/11/09 07:24:06;;;;;;;20.87;9.20;;;3.40;99.90;;;;;;5048199;28;20205;-69
2021/11/09 07:26:33;;;;;;;16.50;9.57;;;3.50;99.90;;;;;;5049783;28;20205;-69
2021/11/09 07:29:00;;;;;;;15.20;8.93;;;3.50;99.90;;;;;;5053982;28;20205;-69
2021/11/09 07:31:29;;;;;;;16.00;9.83;;;3.50;99.90;;;;;;5057213;28;20257;-69
2021/11/09 07:33:58;;;;;;;19.03;9.50;;;3.50;99.90;;;;;;5045161;28;20206;-69
2021/11/09 07:36:25;;;;;;;12.17;8.70;;;3.50;99.90;;;;;;5050694;28;20214;-68
2021/11/09 07:38:52;;;;;;;16.80;9.47;;;3.60;99.90;;;;;;5058697;28;20244;-69
2021/11/09 07:41:21;;;;;;;16.97;9.80;;;3.60;99.90;;;;;;5050596;28;20241;-69
2021/11/09 07:43:48;;;;;;;16.73;9.73;;;3.50;99.90;;;;;;5047771;28;20315;-70
2021/11/09 07:46:14;;;;;;;18.13;10.23;;;3.50;99.90;;;;;;5053231;28;20205;-70
2021/11/09 07:48:42;;;;;;;14.47;9.33;;;3.50;99.90;;;;;;5051128;28;20237;-70
2021/11/09 07:51:10;;;;;;;16.07;10.30;;;3.50;99.90;;;;;;5051802;28;20714;-68
2021/11/09 07:53:39;;;;;;;16.13;10.07;;;3.50;99.90;;;;;;5052525;28;20706;-72
2021/11/09 07:56:13;;;;;;;19.50;10.87;;;3.50;99.90;;;;;;5054814;28;20741;-72
2021/11/09 07:58:48;;;;;;;20.83;10.57;;;3.50;99.90;;;;;;5057313;28;20229;-72
2021/11/09 08:01:17;;;;;;;20.27;11.47;;;3.50;99.90;;;;;;5052637;28;20620;-70
2021/11/09 08:03:48;;;;;;;19.57;10.60;;;3.50;99.90;;;;;;5056101;28;20279;-68
2021/11/09 08:06:21;;;;;;;16.67;10.50;;;3.60;99.90;;;;;;5051395;28;20299;-70
2021/11/09 08:08:58;;;;;;;18.87;11.30;;;3.60;99.90;;;;;;5051355;28;20236;-70
2021/11/09 08:11:25;;;;;;;17.80;10.93;;;3.60;99.90;;;;;;5048157;28;20253;-69
2021/11/09 08:13:54;;;;;;;16.93;11.00;;;3.70;99.90;;;;;;5047432;28;20210;-70
2021/11/09 08:16:23;;;;;;;17.77;10.77;;;3.70;99.90;;;;;;5063649;28;20302;-71
2021/11/09 08:18:50;;;;;;;17.07;10.73;;;;;;;;;;5061907;28;20201;-69
2021/11/09 08:21:19;;;;;;;21.83;11.60;;;3.80;99.90;;;;;;5065514;28;20252;-70
2021/11/09 08:23:49;;;;;;;20.07;11.97;;;3.70;99.90;;;;;;5072250;28;20530;-69
2021/11/09 08:26:19;;;;;;;20.47;12.03;;;3.70;99.90;;;;;;5061620;28;20198;-70
2021/11/09 08:28:46;;;;;;;21.13;11.47;;;3.70;99.90;;;;;;5083646;28;20214;-69
2021/11/09 08:31:17;;;;;;;18.00;11.30;;;3.70;99.90;;;;;;5072288;28;20644;-71
2021/11/09 08:33:45;;;;;;;21.47;12.23;;;3.70;99.90;;;;;;5066974;28;20233;-70
2021/11/09 08:36:15;;;;;;;17.70;10.83;;;3.60;99.90;;;;;;5068504;28;20218;-72
2021/11/09 08:38:43;;;;;;;21.47;12.47;;;3.60;99.90;;;;;;5052261;28;20287;-70
2021/11/09 08:41:11;;;;;;;21.57;12.37;;;3.60;99.90;;;;;;5084695;28;20269;-71
2021/11/09 08:43:44;;;;;;;24.67;12.97;;;3.50;99.90;;;;;;5043150;28;20561;-69
2021/11/09 08:46:16;;;;;;;24.40;13.83;;;3.50;99.90;;;;;;5049804;28;20617;-69
2021/11/09 08:48:45;;;;;;;24.60;13.10;;;3.50;99.90;;;;;;5045370;28;20209;-72
2021/11/09 08:51:13;;;;;;;23.17;13.17;;;3.50;99.90;;;;;;5048282;28;20235;-71
2021/11/09 08:53:43;;;;;;;21.30;13.47;;;3.50;99.90;;;;;;5052341;28;20216;-73
2021/11/09 09:04:26;;;;;;;16.27;9.97;;;3.60;99.90;;;;;;5049994;28;20193;-71
2021/11/09 09:06:56;;;;;;;17.03;11.30;;;3.50;99.90;;;;;;5049277;28;20210;-71
2021/11/09 09:09:23;;;;;;;18.27;10.57;;;3.50;99.90;;;;;;5040042;28;20211;-72
2021/11/09 09:11:52;;;;;;;19.80;11.30;;;3.60;99.90;;;;;;5050228;28;20737;-70
2021/11/09 09:14:21;;;;;;;16.63;11.00;;;3.60;99.90;;;;;;5060108;28;20581;-71
2021/11/09 09:16:48;;;;;;;18.97;11.47;;;3.70;99.90;;;;;;5046029;28;20567;-69
2021/11/09 09:19:17;;;;;;;19.80;10.23;;;3.70;99.90;;;;;;5053928;28;20206;-70
2021/11/09 09:21:47;;;;;;;16.07;10.60;;;3.70;99.90;;;;;;5050584;28;20245;-70
2021/11/09 09:24:26;;;;;;;17.77;10.27;;;3.80;99.90;;;;;;5048710;28;20253;-69
2021/11/09 09:27:04;;;;;;;17.37;11.33;;;3.80;99.90;;;;;;5045351;28;20206;-71
2021/11/09 09:32:54;;;;;;;17.63;10.90;;;3.90;99.90;;;;;;5046361;28;20237;-71
2021/11/09 09:52:18;;;;;;;18.27;12.47;;;4.00;99.90;;;;;;5051761;28;20830;-67
2021/11/09 09:55:02;;;;;;;22.27;13.37;;;4.10;99.90;;;;;;5045705;28;20225;-68
2021/11/09 09:57:30;;;;;;;21.87;12.57;;;4.10;99.90;;;;;;5046687;28;20230;-68
2021/11/09 09:59:59;;;;;;;21.63;12.73;;;4.20;99.90;;;;;;5049416;28;20209;-67
2021/11/09 10:02:29;;;;;;;21.83;12.77;;;4.30;99.90;;;;;;5048016;28;20360;-67
2021/11/09 10:04:57;;;;;;;20.60;12.80;;;4.40;99.90;;;;;;5050650;28;20210;-67
2021/11/09 10:07:30;;;;;;;20.63;12.10;;;4.50;99.90;;;;;;5046719;28;20309;-67
2021/11/09 10:09:58;;;;;;;20.53;12.87;;;4.60;99.90;;;;;;5049012;28;20241;-67
2021/11/09 10:12:30;;;;;;;21.83;12.63;;;4.70;99.90;;;;;;5047458;28;20213;-67
2021/11/09 10:15:02;;;;;;;21.23;13.10;;;4.70;99.90;;;;;;5043839;28;20209;-69
2021/11/09 10:17:30;;;;;;;21.40;13.60;;;4.70;99.90;;;;;;5044446;28;20705;-67
2021/11/09 10:19:59;;;;;;;20.70;12.63;;;4.80;99.90;;;;;;5047011;28;20556;-69
2021/11/09 10:22:29;;;;;;;21.33;13.80;;;4.90;99.90;;;;;;5046866;28;20222;-67
2021/11/09 10:25:00;;;;;;;21.33;13.10;;;5.00;99.90;;;;;;5043125;28;20197;-68
2021/11/09 10:27:30;;;;;;;21.90;13.17;;;5.00;99.90;;;;;;5045604;28;20253;-67
2021/11/09 10:29:59;;;;;;;17.53;11.27;;;5.10;99.90;;;;;;5047025;28;20635;-68
2021/11/09 10:32:28;;;;;;;19.17;11.70;;;5.20;99.90;;;;;;5040690;28;20242;-67
2021/11/09 10:34:59;;;;;;;17.57;11.90;;;5.30;99.90;;;;;;5047381;28;20210;-69
2021/11/09 10:37:28;;;;;;;13.73;9.97;;;5.40;99.90;;;;;;5047937;28;20376;-68
2021/11/09 10:39:56;;;;;;;15.10;10.07;;;5.50;99.90;;;;;;5046398;28;20218;-68
2021/11/09 10:42:25;;;;;;;16.63;9.93;;;5.50;99.90;;;;;;5042917;28;20272;-67
2021/11/09 10:44:57;;;;;;;19.23;11.37;;;5.50;99.90;;;;;;5046087;28;20688;-67
2021/11/09 10:47:28;;;;;;;16.03;11.63;;;5.50;99.90;;;;;;5047085;28;20304;-70
2021/11/09 10:49:59;;;;;;;26.33;15.13;;;5.50;99.90;;;;;;5050934;28;20224;-71
2021/11/09 10:52:29;;;;;;;23.63;14.60;;;5.40;99.90;;;;;;5056264;28;20288;-68
2021/11/09 10:55:05;;;;;;;22.73;14.83;;;5.50;99.90;;;;;;5050685;28;20213;-69
2021/11/09 10:57:51;;;;;;;25.30;15.60;;;5.50;99.90;;;;;;5042970;28;20347;-70
2021/11/09 11:00:35;;;;;;;23.13;16.23;;;5.50;99.90;;;;;;5048629;28;20209;-71
2021/11/09 11:03:21;;;;;;;26.47;15.60;;;5.50;99.90;;;;;;5047698;28;20233;-69
2021/11/09 11:05:48;;;;;;;24.63;16.13;;;5.60;99.90;;;;;;5051390;28;20281;-71
2021/11/09 11:08:16;;;;;;;23.70;15.80;;;5.60;99.90;;;;;;5051524;28;20313;-69
2021/11/09 11:10:43;;;;;;;25.90;16.27;;;5.60;99.90;;;;;;5051656;28;20217;-71
2021/11/09 11:13:20;;;;;;;24.67;15.97;;;5.60;99.90;;;;;;5051961;28;20206;-70
2021/11/09 11:16:10;;;;;;;25.43;16.63;;;5.60;99.90;;;;;;5049461;28;20608;-70
2021/11/09 11:18:41;;;;;;;22.50;14.87;;;5.70;99.90;;;;;;5052451;28;20221;-71
2021/11/09 11:21:10;;;;;;;22.37;15.77;;;5.60;99.90;;;;;;5051722;28;20755;-71
2021/11/09 11:23:39;;;;;;;27.73;17.50;;;5.60;99.90;;;;;;5052890;28;20309;-71
2021/11/09 11:26:08;;;;;;;27.30;18.30;;;5.60;99.90;;;;;;5050704;28;20202;-70
2021/11/09 11:28:37;;;;;;;26.40;17.30;;;5.50;99.90;;;;;;5049506;28;20237;-71
2021/11/09 11:31:04;;;;;;;24.43;16.70;;;5.50;99.90;;;;;;5054238;28;20709;-73
2021/11/09 11:33:33;;;;;;;26.53;16.97;;;5.40;99.90;;;;;;5051070;28;20297;-70
2021/11/09 11:36:01;;;;;;;24.37;16.70;;;5.40;99.90;;;;;;5051996;28;20214;-73
2021/11/09 11:38:29;;;;;;;23.37;15.77;;;5.50;99.90;;;;;;5051155;28;20725;-72
2021/11/09 11:41:02;;;;;;;22.77;14.27;;;5.40;99.90;;;;;;5050562;28;20206;-72
2021/11/09 11:43:57;;;;;;;18.80;13.50;;;5.50;99.90;;;;;;5041581;28;20222;-71
2021/11/09 11:46:50;;;;;;;18.20;11.90;;;5.50;99.90;;;;;;5048328;28;20698;-70
2021/11/09 11:49:21;;;;;;;19.37;11.67;;;5.40;99.90;;;;;;5048038;28;20662;-71
2021/11/09 11:52:12;;;;;;;13.37;9.93;;;5.50;99.90;;;;;;5059474;28;20198;-69
2021/11/09 11:54:48;;;;;;;14.07;9.07;;;5.50;99.90;;;;;;5054109;28;20674;-71
2021/11/09 11:57:38;;;;;;;12.47;9.07;;;5.60;99.90;;;;;;5054734;28;20256;-71
2021/11/09 12:00:26;;;;;;;12.07;8.43;;;5.60;99.90;;;;;;5048651;28;20206;-70
2021/11/09 12:02:53;;;;;;;14.80;9.37;;;5.70;99.90;;;;;;5045648;28;20615;-70
2021/11/09 12:05:39;;;;;;;14.17;8.77;;;5.70;99.90;;;;;;5051251;28;20220;-71
2021/11/09 12:08:10;;;;;;;12.20;8.30;;;5.70;99.90;;;;;;5038344;28;20648;-70
2021/11/09 12:10:48;;;;;;;9.10;7.40;;;5.70;99.90;;;;;;5050230;28;20685;-69
2021/11/09 12:13:17;;;;;;;8.87;7.30;;;5.60;99.90;;;;;;5053717;28;20270;-69
2021/11/09 12:15:47;;;;;;;9.27;7.20;;;5.50;99.90;;;;;;5045919;28;20725;-70
2021/11/09 12:18:36;;;;;;;9.03;7.40;;;5.40;99.90;;;;;;5051067;28;20761;-69
2021/11/09 12:21:08;;;;;;;9.07;7.30;;;5.30;99.90;;;;;;5057711;28;20241;-70
2021/11/09 12:23:38;;;;;;;10.03;7.37;;;5.30;99.90;;;;;;5046836;28;20234;-69
2021/11/09 12:26:06;;;;;;;9.83;7.90;;;5.30;99.90;;;;;;5051302;28;20313;-71
2021/11/09 12:28:35;;;;;;;9.67;7.20;;;5.30;99.90;;;;;;5046657;28;20606;-68
2021/11/09 12:31:12;;;;;;;11.73;7.10;;;5.30;99.90;;;;;;5049047;28;20240;-68
2021/11/09 12:33:47;;;;;;;9.20;6.53;;;5.40;99.90;;;;;;5049188;28;20207;-68
2021/11/09 12:36:23;;;;;;;9.87;7.03;;;5.40;99.90;;;;;;5047698;28;20204;-68
2021/11/09 12:38:53;;;;;;;9.37;6.53;;;5.30;99.90;;;;;;5048449;28;20214;-71
2021/11/09 12:41:21;;;;;;;9.33;6.87;;;5.30;99.90;;;;;;5056050;28;20758;-68
2021/11/09 12:43:50;;;;;;;8.37;5.87;;;5.30;99.90;;;;;;5044199;28;20257;-68
2021/11/09 12:46:26;;;;;;;9.77;6.20;;;5.20;99.90;;;;;;5049962;28;20207;-69
2021/11/09 12:48:59;;;;;;;8.13;6.23;;;5.20;99.90;;;;;;5048193;28;20297;-67
2021/11/09 12:51:29;;;;;;;10.67;7.20;;;5.10;99.90;;;;;;5047914;28;20214;-68
2021/11/09 12:54:01;;;;;;;9.03;6.77;;;5.10;99.90;;;;;;5049681;28;20208;-71
2021/11/09 12:56:33;;;;;;;8.10;6.60;;;5.00;99.90;;;;;;5046695;28;20236;-73
2021/11/09 12:59:06;;;;;;;9.00;6.87;;;5.00;99.90;;;;;;5043588;28;20213;-72
2021/11/09 13:04:22;;;;;;;8.57;6.70;;;5.00;99.90;;;;;;5047295;28;20225;-73
2021/11/09 13:06:58;;;;;;;9.10;7.20;;;5.00;99.90;;;;;;5060256;28;20632;-72
2021/11/09 13:09:31;;;;;;;11.10;7.10;;;5.00;99.90;;;;;;5047801;28;20658;-73
2021/11/09 13:12:01;;;;;;;8.87;6.80;;;5.00;99.90;;;;;;5052440;28;20675;-74
2021/11/09 13:14:43;;;;;;;14.03;7.97;;;5.00;99.90;;;;;;5049700;28;20683;-73
2021/11/09 13:17:19;;;;;;;10.83;7.43;;;5.00;99.90;;;;;;5051263;28;20226;-74
2021/11/09 13:19:47;;;;;;;12.17;8.53;;;5.00;99.90;;;;;;5053568;28;20221;-74
2021/11/09 13:22:16;;;;;;;11.20;7.90;;;5.00;99.90;;;;;;5048598;28;20212;-74
2021/11/09 13:24:56;;;;;;;11.97;8.20;;;5.00;99.90;;;;;;5048966;28;20226;-72
2021/11/09 13:27:40;;;;;;;13.80;8.57;;;5.00;99.90;;;;;;5053995;28;20202;-72
2021/11/09 13:30:13;;;;;;;14.43;8.47;;;5.00;99.90;;;;;;5050198;28;20202;-72
2021/11/09 13:32:41;;;;;;;11.03;7.23;;;5.10;99.90;;;;;;5051917;28;20237;-72
2021/11/09 13:35:21;;;;;;;10.90;7.87;;;5.10;99.90;;;;;;5041038;28;20210;-74
2021/11/09 13:37:49;;;;;;;10.23;7.40;;;5.10;99.90;;;;;;5047824;28;20248;-75
2021/11/09 13:40:19;;;;;;;12.00;7.53;;;5.10;99.90;;;;;;5049540;28;20217;-73
2021/11/09 13:42:58;;;;;;;11.07;7.83;;;5.10;99.90;;;;;;5053735;28;20221;-73
2021/11/09 13:45:25;;;;;;;11.23;7.77;;;5.10;99.90;;;;;;5048216;28;20621;-72
2021/11/09 13:47:53;;;;;;;12.17;8.63;;;5.10;99.90;;;;;;5053493;28;20233;-70
2021/11/09 13:50:19;;;;;;;15.93;8.90;;;5.10;99.90;;;;;;5050493;28;20243;-72
2021/11/09 13:52:50;;;;;;;11.77;8.60;;;5.10;99.90;;;;;;5051160;28;20241;-70
2021/11/09 13:55:20;;;;;;;13.17;8.77;;;5.10;99.90;;;;;;5046584;28;20197;-71
2021/11/09 13:57:48;;;;;;;14.93;9.43;;;5.10;99.90;;;;;;5051804;28;20556;-72
2021/11/09 14:00:25;;;;;;;12.03;8.03;;;5.10;99.90;;;;;;5053540;28;20736;-70
2021/11/09 14:03:07;;;;;;;14.73;8.37;;;5.20;99.90;;;;;;5044132;28;20239;-69
2021/11/09 14:05:51;;;;;;;11.83;8.20;;;5.10;99.90;;;;;;5048205;28;20210;-71
2021/11/09 14:14:07;;;;;;;10.77;7.63;;;5.20;99.90;;;;;;5015458;28;20218;-71
2021/11/09 14:16:43;;;;;;;10.17;7.33;;;5.10;99.90;;;;;;5056387;28;20220;-72
2021/11/09 14:19:14;;;;;;;9.97;7.03;;;5.10;99.90;;;;;;5053221;28;20324;-73
2021/11/09 14:21:43;;;;;;;11.47;7.10;;;5.10;99.90;;;;;;5054350;28;20206;-70
2021/11/09 14:24:15;;;;;;;12.10;8.00;;;5.10;99.90;;;;;;5054375;28;20708;-72
2021/11/09 14:27:00;;;;;;;9.77;7.10;;;5.10;99.90;;;;;;5053602;28;20209;-70
2021/11/09 14:29:30;;;;;;;10.40;7.43;;;5.10;99.90;;;;;;5058466;28;20213;-70
2021/11/09 14:32:02;;;;;;;11.00;7.67;;;5.10;99.90;;;;;;5050303;28;20726;-73
2021/11/09 14:34:30;;;;;;;12.03;7.50;;;5.20;99.90;;;;;;5053501;28;20198;-73
2021/11/09 14:37:10;;;;;;;10.07;7.33;;;5.20;99.90;;;;;;5052983;28;20241;-72
2021/11/09 14:39:42;;;;;;;10.13;7.43;;;5.20;99.90;;;;;;5050251;28;20719;-72